Imperial County Airport Imperial US
ICAO: KIPL
IATA: IPL
Category: Medium
Scheduled Services: No

Elevation: -54 ft
TransAlt. 18000 ft.

Airport Communications:
ASOS:132.175
LOS ANGELES CNTR:128.6
SAN DIEGO RDO:122.5
CTAF/UNICOM:122.7

KIPL Zoom In..

Runways:

(A) RW 08 length 4501 ft width 75 ft
---- / hdg 76

(B) RW 14 length 5308 ft width 100 ft
---- / hdg 139

(C) RW 26 length 4501 ft width 75 ft
---- / hdg 256

(D) RW 32 length 5308 ft width 100 ft
---- / hdg 319

Location; KIPL
Day. 20 / Time. 19.53 Zulu
* Altimeter: 29.79
* Temperature: 39° c. 102.2°f.
* Wind from: 070° Speed 07 kn.
Dewpoint: 19° c.
Visibility: 10 Statute Miles.
Clouds: Clear (automated report).

KIPL 201953Z AUTO 07007KT 10SM CLR 39/19 A2979 RMK AO2 SLP088 T03940189


Wind From 070°
Speed 07 kn.

 
 
jpsmedia.com for Web Design worldairports.se 2018   terms of use